Terminal Aerodrome Forecast
Issued by NWS Mt. Holly, NJ

Home | Current Version | Previous Version | Text Only | Print | Product List | Glossary On
Versions: 1 2 3 4 5 6 7 8 9 10 11 12 13 14 15 16 17 18 19 20 21 22 23 24
000
FTUS41 KPHI 231720
TAFPHL
TAF
KPHL 231720Z 2318/2424 VRB04KT P6SM SKC
     FM232100 26004KT P6SM SKC
     FM240000 19004KT P6SM FEW250
     FM241200 19010KT P6SM BKN100 PROB30 2414/2417 4SM -RA OVC050=

USA.gov is the U.S. government's official web portal to all federal, state and local government web resources and services.